sensor_id;sensor_type;location;lat;lon;timestamp;pressure;altitude;pressure_sealevel;temperature
10869;BMP180;62667;48.698;8.762;2023-03-24T00:00:35;95160.00;;;11.30
10869;BMP180;62667;48.698;8.762;2023-03-24T00:03:02;95162.00;;;11.30
10869;BMP180;62667;48.698;8.762;2023-03-24T00:05:30;95161.00;;;11.20
10869;BMP180;62667;48.698;8.762;2023-03-24T00:07:58;95159.00;;;11.20
10869;BMP180;62667;48.698;8.762;2023-03-24T00:10:27;95153.00;;;11.20
10869;BMP180;62667;48.698;8.762;2023-03-24T00:13:00;95145.00;;;11.20
10869;BMP180;62667;48.698;8.762;2023-03-24T00:15:28;95149.00;;;11.20
10869;BMP180;62667;48.698;8.762;2023-03-24T00:17:57;95140.00;;;11.30
10869;BMP180;62667;48.698;8.762;2023-03-24T00:20:25;95132.00;;;11.20
10869;BMP180;62667;48.698;8.762;2023-03-24T00:22:55;95134.00;;;11.10
10869;BMP180;62667;48.698;8.762;2023-03-24T00:25:26;95125.00;;;11.10
10869;BMP180;62667;48.698;8.762;2023-03-24T00:27:55;95134.00;;;11.10
10869;BMP180;62667;48.698;8.762;2023-03-24T00:30:23;95128.00;;;11.20
10869;BMP180;62667;48.698;8.762;2023-03-24T00:32:51;95126.00;;;11.30
10869;BMP180;62667;48.698;8.762;2023-03-24T00:35:20;95115.00;;;11.40
10869;BMP180;62667;48.698;8.762;2023-03-24T00:37:48;95117.00;;;11.40
10869;BMP180;62667;48.698;8.762;2023-03-24T00:40:18;95117.00;;;11.30
10869;BMP180;62667;48.698;8.762;2023-03-24T00:42:47;95121.00;;;11.30
10869;BMP180;62667;48.698;8.762;2023-03-24T00:45:17;95120.00;;;11.50
10869;BMP180;62667;48.698;8.762;2023-03-24T00:47:48;95109.00;;;11.60
10869;BMP180;62667;48.698;8.762;2023-03-24T00:50:20;95102.00;;;11.50
10869;BMP180;62667;48.698;8.762;2023-03-24T00:52:52;95092.00;;;11.40
10869;BMP180;62667;48.698;8.762;2023-03-24T00:55:19;95088.00;;;11.40
10869;BMP180;62667;48.698;8.762;2023-03-24T00:57:48;95081.00;;;11.40
10869;BMP180;62667;48.698;8.762;2023-03-24T01:00:18;95084.00;;;11.30
10869;BMP180;62667;48.698;8.762;2023-03-24T01:02:47;95073.00;;;11.40
10869;BMP180;62667;48.698;8.762;2023-03-24T01:05:21;95080.00;;;11.40
10869;BMP180;62667;48.698;8.762;2023-03-24T01:07:49;95070.00;;;11.30
10869;BMP180;62667;48.698;8.762;2023-03-24T01:10:19;95081.00;;;11.50
10869;BMP180;62667;48.698;8.762;2023-03-24T01:12:52;95078.00;;;11.50
10869;BMP180;62667;48.698;8.762;2023-03-24T01:15:22;95079.00;;;11.50
10869;BMP180;62667;48.698;8.762;2023-03-24T01:17:51;95077.00;;;11.40
10869;BMP180;62667;48.698;8.762;2023-03-24T01:20:21;95065.00;;;11.30
10869;BMP180;62667;48.698;8.762;2023-03-24T01:22:50;95043.00;;;11.20
10869;BMP180;62667;48.698;8.762;2023-03-24T01:25:21;95043.00;;;11.10
10869;BMP180;62667;48.698;8.762;2023-03-24T01:27:50;95051.00;;;11.30
10869;BMP180;62667;48.698;8.762;2023-03-24T01:30:20;95056.00;;;11.20
10869;BMP180;62667;48.698;8.762;2023-03-24T01:32:48;95043.00;;;11.20
10869;BMP180;62667;48.698;8.762;2023-03-24T01:35:16;95058.00;;;11.00
10869;BMP180;62667;48.698;8.762;2023-03-24T01:37:45;95050.00;;;11.00
10869;BMP180;62667;48.698;8.762;2023-03-24T01:40:16;95041.00;;;10.90
10869;BMP180;62667;48.698;8.762;2023-03-24T01:42:44;95035.00;;;10.90
10869;BMP180;62667;48.698;8.762;2023-03-24T01:45:41;95029.00;;;10.90
10869;BMP180;62667;48.698;8.762;2023-03-24T01:48:12;95032.00;;;10.80
10869;BMP180;62667;48.698;8.762;2023-03-24T01:50:42;95035.00;;;10.90
10869;BMP180;62667;48.698;8.762;2023-03-24T01:53:13;95029.00;;;11.00
10869;BMP180;62667;48.698;8.762;2023-03-24T01:55:42;95029.00;;;11.10
10869;BMP180;62667;48.698;8.762;2023-03-24T01:58:11;95032.00;;;11.00
10869;BMP180;62667;48.698;8.762;2023-03-24T02:00:40;95029.00;;;11.00
10869;BMP180;62667;48.698;8.762;2023-03-24T02:03:11;95021.00;;;10.90
10869;BMP180;62667;48.698;8.762;2023-03-24T02:05:41;95019.00;;;10.80
10869;BMP180;62667;48.698;8.762;2023-03-24T02:08:17;95022.00;;;10.80
10869;BMP180;62667;48.698;8.762;2023-03-24T02:10:46;95027.00;;;10.70
10869;BMP180;62667;48.698;8.762;2023-03-24T02:13:15;95026.00;;;10.70
10869;BMP180;62667;48.698;8.762;2023-03-24T02:15:49;95035.00;;;10.80
10869;BMP180;62667;48.698;8.762;2023-03-24T02:18:24;95027.00;;;10.80
10869;BMP180;62667;48.698;8.762;2023-03-24T02:21:21;95030.00;;;10.80
10869;BMP180;62667;48.698;8.762;2023-03-24T02:24:21;95037.00;;;10.70
10869;BMP180;62667;48.698;8.762;2023-03-24T02:27:03;95042.00;;;10.70
10869;BMP180;62667;48.698;8.762;2023-03-24T02:30:03;95037.00;;;10.60
10869;BMP180;62667;48.698;8.762;2023-03-24T02:32:59;95029.00;;;10.60
10869;BMP180;62667;48.698;8.762;2023-03-24T02:35:40;95022.00;;;10.60
10869;BMP180;62667;48.698;8.762;2023-03-24T02:38:36;95016.00;;;10.70
10869;BMP180;62667;48.698;8.762;2023-03-24T02:41:10;95019.00;;;10.70
10869;BMP180;62667;48.698;8.762;2023-03-24T02:43:46;95013.00;;;10.70
10869;BMP180;62667;48.698;8.762;2023-03-24T02:46:22;95007.00;;;10.70
10869;BMP180;62667;48.698;8.762;2023-03-24T02:49:06;94995.00;;;10.80
10869;BMP180;62667;48.698;8.762;2023-03-24T02:51:41;94992.00;;;10.80
10869;BMP180;62667;48.698;8.762;2023-03-24T02:54:13;94989.00;;;10.80
10869;BMP180;62667;48.698;8.762;2023-03-24T02:56:45;94990.00;;;10.80
10869;BMP180;62667;48.698;8.762;2023-03-24T02:59:18;94991.00;;;10.70
10869;BMP180;62667;48.698;8.762;2023-03-24T03:01:50;94982.00;;;10.70
10869;BMP180;62667;48.698;8.762;2023-03-24T03:04:26;94976.00;;;10.70
10869;BMP180;62667;48.698;8.762;2023-03-24T03:07:00;94972.00;;;10.70
10869;BMP180;62667;48.698;8.762;2023-03-24T03:09:32;94978.00;;;10.70
10869;BMP180;62667;48.698;8.762;2023-03-24T03:12:04;94973.00;;;10.60
10869;BMP180;62667;48.698;8.762;2023-03-24T03:14:38;94971.00;;;10.50
10869;BMP180;62667;48.698;8.762;2023-03-24T03:17:10;94974.00;;;10.60
10869;BMP180;62667;48.698;8.762;2023-03-24T03:19:41;94980.00;;;10.90
10869;BMP180;62667;48.698;8.762;2023-03-24T03:22:14;94978.00;;;10.90
10869;BMP180;62667;48.698;8.762;2023-03-24T03:24:45;94965.00;;;10.90
10869;BMP180;62667;48.698;8.762;2023-03-24T03:27:20;94981.00;;;11.00
10869;BMP180;62667;48.698;8.762;2023-03-24T03:29:51;94975.00;;;11.00
10869;BMP180;62667;48.698;8.762;2023-03-24T03:32:23;94972.00;;;10.90
10869;BMP180;62667;48.698;8.762;2023-03-24T03:34:58;94977.00;;;11.00
10869;BMP180;62667;48.698;8.762;2023-03-24T03:37:31;94979.00;;;11.00
10869;BMP180;62667;48.698;8.762;2023-03-24T03:40:03;94988.00;;;11.10
10869;BMP180;62667;48.698;8.762;2023-03-24T03:42:36;94982.00;;;11.10
10869;BMP180;62667;48.698;8.762;2023-03-24T03:45:04;94979.00;;;11.10
10869;BMP180;62667;48.698;8.762;2023-03-24T03:47:34;94979.00;;;11.10
10869;BMP180;62667;48.698;8.762;2023-03-24T03:50:03;94978.00;;;11.20
10869;BMP180;62667;48.698;8.762;2023-03-24T03:52:31;94982.00;;;11.20
10869;BMP180;62667;48.698;8.762;2023-03-24T03:54:59;94972.00;;;11.20
10869;BMP180;62667;48.698;8.762;2023-03-24T03:57:27;94969.00;;;11.30
10869;BMP180;62667;48.698;8.762;2023-03-24T03:59:56;94967.00;;;11.30
10869;BMP180;62667;48.698;8.762;2023-03-24T04:02:33;94959.00;;;11.40
10869;BMP180;62667;48.698;8.762;2023-03-24T04:05:23;94958.00;;;11.40
10869;BMP180;62667;48.698;8.762;2023-03-24T04:08:24;94960.00;;;11.20
10869;BMP180;62667;48.698;8.762;2023-03-24T04:11:22;94953.00;;;11.20
10869;BMP180;62667;48.698;8.762;2023-03-24T04:14:01;94954.00;;;11.30
10869;BMP180;62667;48.698;8.762;2023-03-24T04:16:41;94951.00;;;11.20
10869;BMP180;62667;48.698;8.762;2023-03-24T04:19:23;94958.00;;;11.10
10869;BMP180;62667;48.698;8.762;2023-03-24T04:22:10;94974.00;;;11.10
10869;BMP180;62667;48.698;8.762;2023-03-24T04:24:47;94966.00;;;10.90
10869;BMP180;62667;48.698;8.762;2023-03-24T04:27:22;94968.00;;;10.60
10869;BMP180;62667;48.698;8.762;2023-03-24T04:29:59;94958.00;;;10.50
10869;BMP180;62667;48.698;8.762;2023-03-24T04:32:34;94952.00;;;10.70
10869;BMP180;62667;48.698;8.762;2023-03-24T04:35:09;94964.00;;;10.80
10869;BMP180;62667;48.698;8.762;2023-03-24T04:37:39;94977.00;;;10.80
10869;BMP180;62667;48.698;8.762;2023-03-24T04:40:10;94978.00;;;10.80
10869;BMP180;62667;48.698;8.762;2023-03-24T04:42:42;94979.00;;;10.60
10869;BMP180;62667;48.698;8.762;2023-03-24T04:45:12;94987.00;;;10.40
10869;BMP180;62667;48.698;8.762;2023-03-24T04:47:45;95008.00;;;10.60
10869;BMP180;62667;48.698;8.762;2023-03-24T04:50:21;95014.00;;;10.30
10869;BMP180;62667;48.698;8.762;2023-03-24T04:52:55;95020.00;;;10.30
10869;BMP180;62667;48.698;8.762;2023-03-24T04:55:40;95034.00;;;10.30
10869;BMP180;62667;48.698;8.762;2023-03-24T04:58:10;95040.00;;;10.40
10869;BMP180;62667;48.698;8.762;2023-03-24T05:00:37;95049.00;;;10.50
10869;BMP180;62667;48.698;8.762;2023-03-24T05:03:06;95065.00;;;10.60
10869;BMP180;62667;48.698;8.762;2023-03-24T05:05:33;95055.00;;;10.70
10869;BMP180;62667;48.698;8.762;2023-03-24T05:08:01;95062.00;;;10.80
10869;BMP180;62667;48.698;8.762;2023-03-24T05:10:29;95057.00;;;10.80
10869;BMP180;62667;48.698;8.762;2023-03-24T05:12:56;95068.00;;;10.90
10869;BMP180;62667;48.698;8.762;2023-03-24T05:15:23;95053.00;;;10.80
10869;BMP180;62667;48.698;8.762;2023-03-24T05:17:51;95062.00;;;11.00
10869;BMP180;62667;48.698;8.762;2023-03-24T05:20:20;95067.00;;;11.00
10869;BMP180;62667;48.698;8.762;2023-03-24T05:22:48;95069.00;;;11.10
10869;BMP180;62667;48.698;8.762;2023-03-24T05:25:16;95074.00;;;11.00
10869;BMP180;62667;48.698;8.762;2023-03-24T05:27:44;95076.00;;;11.10
10869;BMP180;62667;48.698;8.762;2023-03-24T05:30:12;95065.00;;;11.20
10869;BMP180;62667;48.698;8.762;2023-03-24T05:32:40;95059.00;;;11.30
10869;BMP180;62667;48.698;8.762;2023-03-24T05:35:08;95062.00;;;11.30
10869;BMP180;62667;48.698;8.762;2023-03-24T05:37:37;95066.00;;;11.30
10869;BMP180;62667;48.698;8.762;2023-03-24T05:40:05;95064.00;;;11.00
10869;BMP180;62667;48.698;8.762;2023-03-24T05:42:33;95072.00;;;11.00
10869;BMP180;62667;48.698;8.762;2023-03-24T05:45:00;95072.00;;;11.00
10869;BMP180;62667;48.698;8.762;2023-03-24T05:47:28;95061.00;;;11.10
10869;BMP180;62667;48.698;8.762;2023-03-24T05:49:56;95065.00;;;11.00
10869;BMP180;62667;48.698;8.762;2023-03-24T05:52:23;95063.00;;;11.00
10869;BMP180;62667;48.698;8.762;2023-03-24T05:54:52;95071.00;;;11.00
10869;BMP180;62667;48.698;8.762;2023-03-24T05:57:19;95068.00;;;11.00
10869;BMP180;62667;48.698;8.762;2023-03-24T05:59:47;95073.00;;;11.00
10869;BMP180;62667;48.698;8.762;2023-03-24T06:02:14;95072.00;;;11.10
10869;BMP180;62667;48.698;8.762;2023-03-24T06:04:42;95059.00;;;11.20
10869;BMP180;62667;48.698;8.762;2023-03-24T06:07:11;95061.00;;;11.20
10869;BMP180;62667;48.698;8.762;2023-03-24T06:09:39;95064.00;;;11.10
10869;BMP180;62667;48.698;8.762;2023-03-24T06:12:13;95063.00;;;11.20
10869;BMP180;62667;48.698;8.762;2023-03-24T06:14:41;95063.00;;;11.30
10869;BMP180;62667;48.698;8.762;2023-03-24T06:17:10;95062.00;;;11.40
10869;BMP180;62667;48.698;8.762;2023-03-24T06:19:40;95063.00;;;11.50
10869;BMP180;62667;48.698;8.762;2023-03-24T06:22:14;95055.00;;;11.60
10869;BMP180;62667;48.698;8.762;2023-03-24T06:24:42;95062.00;;;11.60
10869;BMP180;62667;48.698;8.762;2023-03-24T06:27:09;95064.00;;;11.70
10869;BMP180;62667;48.698;8.762;2023-03-24T06:29:38;95064.00;;;11.70
10869;BMP180;62667;48.698;8.762;2023-03-24T06:32:07;95064.00;;;11.90
10869;BMP180;62667;48.698;8.762;2023-03-24T06:34:35;95065.00;;;11.60
10869;BMP180;62667;48.698;8.762;2023-03-24T06:37:04;95075.00;;;11.50
10869;BMP180;62667;48.698;8.762;2023-03-24T06:39:31;95069.00;;;11.60
10869;BMP180;62667;48.698;8.762;2023-03-24T06:41:59;95065.00;;;11.60
10869;BMP180;62667;48.698;8.762;2023-03-24T06:44:26;95069.00;;;11.50
10869;BMP180;62667;48.698;8.762;2023-03-24T06:46:55;95056.00;;;11.30
10869;BMP180;62667;48.698;8.762;2023-03-24T06:49:22;95070.00;;;11.40
10869;BMP180;62667;48.698;8.762;2023-03-24T06:51:50;95077.00;;;11.50
10869;BMP180;62667;48.698;8.762;2023-03-24T06:54:18;95079.00;;;11.40
10869;BMP180;62667;48.698;8.762;2023-03-24T06:56:45;95095.00;;;11.20
10869;BMP180;62667;48.698;8.762;2023-03-24T06:59:12;95107.00;;;11.40
10869;BMP180;62667;48.698;8.762;2023-03-24T07:01:42;95098.00;;;11.00
10869;BMP180;62667;48.698;8.762;2023-03-24T07:04:12;95092.00;;;11.00
10869;BMP180;62667;48.698;8.762;2023-03-24T07:06:39;95095.00;;;10.90
10869;BMP180;62667;48.698;8.762;2023-03-24T07:09:07;95110.00;;;11.00
10869;BMP180;62667;48.698;8.762;2023-03-24T07:11:35;95117.00;;;10.90
10869;BMP180;62667;48.698;8.762;2023-03-24T07:14:02;95116.00;;;10.90
10869;BMP180;62667;48.698;8.762;2023-03-24T07:16:29;95123.00;;;10.90
10869;BMP180;62667;48.698;8.762;2023-03-24T07:18:57;95120.00;;;10.80
10869;BMP180;62667;48.698;8.762;2023-03-24T07:21:25;95126.00;;;10.80
10869;BMP180;62667;48.698;8.762;2023-03-24T07:23:53;95118.00;;;10.70
10869;BMP180;62667;48.698;8.762;2023-03-24T07:26:20;95122.00;;;10.80
10869;BMP180;62667;48.698;8.762;2023-03-24T07:28:48;95119.00;;;10.90
10869;BMP180;62667;48.698;8.762;2023-03-24T07:31:16;95118.00;;;10.90
10869;BMP180;62667;48.698;8.762;2023-03-24T07:33:43;95116.00;;;11.00
10869;BMP180;62667;48.698;8.762;2023-03-24T07:36:11;95126.00;;;10.90
10869;BMP180;62667;48.698;8.762;2023-03-24T07:38:39;95131.00;;;11.10
10869;BMP180;62667;48.698;8.762;2023-03-24T07:41:07;95125.00;;;11.00
10869;BMP180;62667;48.698;8.762;2023-03-24T07:43:34;95119.00;;;11.20
10869;BMP180;62667;48.698;8.762;2023-03-24T07:46:02;95127.00;;;11.30
10869;BMP180;62667;48.698;8.762;2023-03-24T07:48:29;95128.00;;;11.20
10869;BMP180;62667;48.698;8.762;2023-03-24T07:50:57;95131.00;;;11.30
10869;BMP180;62667;48.698;8.762;2023-03-24T07:53:24;95139.00;;;11.20
10869;BMP180;62667;48.698;8.762;2023-03-24T07:55:53;95148.00;;;11.20
10869;BMP180;62667;48.698;8.762;2023-03-24T07:58:20;95155.00;;;11.00
10869;BMP180;62667;48.698;8.762;2023-03-24T08:00:48;95152.00;;;10.90
10869;BMP180;62667;48.698;8.762;2023-03-24T08:03:15;95149.00;;;11.00
10869;BMP180;62667;48.698;8.762;2023-03-24T08:05:43;95135.00;;;11.10
10869;BMP180;62667;48.698;8.762;2023-03-24T08:08:12;95132.00;;;11.10
10869;BMP180;62667;48.698;8.762;2023-03-24T08:10:39;95117.00;;;11.10
10869;BMP180;62667;48.698;8.762;2023-03-24T08:13:09;95113.00;;;11.20
10869;BMP180;62667;48.698;8.762;2023-03-24T08:15:36;95122.00;;;11.30
10869;BMP180;62667;48.698;8.762;2023-03-24T08:18:04;95116.00;;;11.10
10869;BMP180;62667;48.698;8.762;2023-03-24T08:20:32;95102.00;;;11.30
10869;BMP180;62667;48.698;8.762;2023-03-24T08:23:02;95082.00;;;11.40
10869;BMP180;62667;48.698;8.762;2023-03-24T08:25:33;95062.00;;;11.50
10869;BMP180;62667;48.698;8.762;2023-03-24T08:28:01;95059.00;;;11.60
10869;BMP180;62667;48.698;8.762;2023-03-24T08:30:30;95067.00;;;11.70
10869;BMP180;62667;48.698;8.762;2023-03-24T08:32:59;95050.00;;;11.80
10869;BMP180;62667;48.698;8.762;2023-03-24T08:35:29;95047.00;;;11.70
10869;BMP180;62667;48.698;8.762;2023-03-24T08:37:57;95088.00;;;11.90
10869;BMP180;62667;48.698;8.762;2023-03-24T08:40:28;95078.00;;;11.90
10869;BMP180;62667;48.698;8.762;2023-03-24T08:43:12;95073.00;;;11.80
10869;BMP180;62667;48.698;8.762;2023-03-24T08:45:43;95094.00;;;12.00
10869;BMP180;62667;48.698;8.762;2023-03-24T08:48:10;95112.00;;;11.80
10869;BMP180;62667;48.698;8.762;2023-03-24T08:50:40;95116.00;;;11.60
10869;BMP180;62667;48.698;8.762;2023-03-24T08:53:09;95116.00;;;11.40
10869;BMP180;62667;48.698;8.762;2023-03-24T08:55:37;95106.00;;;11.40
10869;BMP180;62667;48.698;8.762;2023-03-24T08:58:06;95104.00;;;11.60
10869;BMP180;62667;48.698;8.762;2023-03-24T09:00:34;95108.00;;;11.40
10869;BMP180;62667;48.698;8.762;2023-03-24T09:03:03;95116.00;;;11.40
10869;BMP180;62667;48.698;8.762;2023-03-24T09:05:32;95120.00;;;11.40
10869;BMP180;62667;48.698;8.762;2023-03-24T09:07:59;95106.00;;;11.40
10869;BMP180;62667;48.698;8.762;2023-03-24T09:10:28;95098.00;;;11.30
10869;BMP180;62667;48.698;8.762;2023-03-24T09:12:56;95097.00;;;11.40
10869;BMP180;62667;48.698;8.762;2023-03-24T09:15:24;95111.00;;;11.30
10869;BMP180;62667;48.698;8.762;2023-03-24T09:17:51;95105.00;;;11.40
10869;BMP180;62667;48.698;8.762;2023-03-24T09:20:21;95117.00;;;11.50
10869;BMP180;62667;48.698;8.762;2023-03-24T09:22:48;95108.00;;;11.60
10869;BMP180;62667;48.698;8.762;2023-03-24T09:25:19;95079.00;;;11.90
10869;BMP180;62667;48.698;8.762;2023-03-24T09:27:47;95084.00;;;11.90
10869;BMP180;62667;48.698;8.762;2023-03-24T09:30:17;95104.00;;;12.10
10869;BMP180;62667;48.698;8.762;2023-03-24T09:32:45;95109.00;;;12.00
10869;BMP180;62667;48.698;8.762;2023-03-24T09:35:13;95100.00;;;12.00
10869;BMP180;62667;48.698;8.762;2023-03-24T09:37:42;95087.00;;;12.20
10869;BMP180;62667;48.698;8.762;2023-03-24T09:40:17;95092.00;;;12.30
10869;BMP180;62667;48.698;8.762;2023-03-24T09:42:51;95093.00;;;12.50
10869;BMP180;62667;48.698;8.762;2023-03-24T09:45:22;95084.00;;;13.10
10869;BMP180;62667;48.698;8.762;2023-03-24T09:47:53;95084.00;;;12.90
10869;BMP180;62667;48.698;8.762;2023-03-24T09:50:24;95070.00;;;13.40
10869;BMP180;62667;48.698;8.762;2023-03-24T09:52:58;95096.00;;;13.50
10869;BMP180;62667;48.698;8.762;2023-03-24T09:55:28;95110.00;;;13.00
10869;BMP180;62667;48.698;8.762;2023-03-24T09:57:59;95098.00;;;12.80
10869;BMP180;62667;48.698;8.762;2023-03-24T10:00:29;95088.00;;;12.70
10869;BMP180;62667;48.698;8.762;2023-03-24T10:02:59;95096.00;;;12.70
10869;BMP180;62667;48.698;8.762;2023-03-24T10:05:33;95093.00;;;12.50
10869;BMP180;62667;48.698;8.762;2023-03-24T10:08:11;95092.00;;;12.60
10869;BMP180;62667;48.698;8.762;2023-03-24T10:10:51;95091.00;;;12.90
10869;BMP180;62667;48.698;8.762;2023-03-24T10:13:26;95092.00;;;12.80
10869;BMP180;62667;48.698;8.762;2023-03-24T10:16:05;95108.00;;;12.90
10869;BMP180;62667;48.698;8.762;2023-03-24T10:18:38;95107.00;;;12.80
10869;BMP180;62667;48.698;8.762;2023-03-24T10:21:15;95111.00;;;12.80
10869;BMP180;62667;48.698;8.762;2023-03-24T10:23:51;95114.00;;;12.80
10869;BMP180;62667;48.698;8.762;2023-03-24T10:26:35;95115.00;;;12.70
10869;BMP180;62667;48.698;8.762;2023-03-24T10:29:21;95100.00;;;12.70
10869;BMP180;62667;48.698;8.762;2023-03-24T10:31:53;95110.00;;;12.60
10869;BMP180;62667;48.698;8.762;2023-03-24T10:34:27;95125.00;;;12.60
10869;BMP180;62667;48.698;8.762;2023-03-24T10:36:57;95115.00;;;12.60
10869;BMP180;62667;48.698;8.762;2023-03-24T10:39:27;95128.00;;;12.80
10869;BMP180;62667;48.698;8.762;2023-03-24T10:41:56;95114.00;;;12.80
10869;BMP180;62667;48.698;8.762;2023-03-24T10:44:25;95129.00;;;13.10
10869;BMP180;62667;48.698;8.762;2023-03-24T10:46:55;95128.00;;;12.80
10869;BMP180;62667;48.698;8.762;2023-03-24T10:49:24;95129.00;;;13.50
10869;BMP180;62667;48.698;8.762;2023-03-24T10:51:53;95127.00;;;14.00
10869;BMP180;62667;48.698;8.762;2023-03-24T10:54:23;95129.00;;;13.40
10869;BMP180;62667;48.698;8.762;2023-03-24T10:57:00;95127.00;;;13.80
10869;BMP180;62667;48.698;8.762;2023-03-24T10:59:32;95128.00;;;13.60
10869;BMP180;62667;48.698;8.762;2023-03-24T11:02:15;95125.00;;;14.00
10869;BMP180;62667;48.698;8.762;2023-03-24T11:04:51;95114.00;;;14.10
10869;BMP180;62667;48.698;8.762;2023-03-24T11:07:19;95117.00;;;14.40
10869;BMP180;62667;48.698;8.762;2023-03-24T11:09:57;95127.00;;;14.60
10869;BMP180;62667;48.698;8.762;2023-03-24T11:12:28;95134.00;;;14.10
10869;BMP180;62667;48.698;8.762;2023-03-24T11:15:14;95154.00;;;14.10
10869;BMP180;62667;48.698;8.762;2023-03-24T11:17:43;95164.00;;;13.40
10869;BMP180;62667;48.698;8.762;2023-03-24T11:20:16;95149.00;;;13.10
10869;BMP180;62667;48.698;8.762;2023-03-24T11:22:55;95147.00;;;12.90
10869;BMP180;62667;48.698;8.762;2023-03-24T11:25:26;95147.00;;;13.00
10869;BMP180;62667;48.698;8.762;2023-03-24T11:27:59;95158.00;;;13.00
10869;BMP180;62667;48.698;8.762;2023-03-24T11:30:32;95160.00;;;12.70
10869;BMP180;62667;48.698;8.762;2023-03-24T11:33:01;95155.00;;;13.00
10869;BMP180;62667;48.698;8.762;2023-03-24T11:35:29;95155.00;;;13.00
10869;BMP180;62667;48.698;8.762;2023-03-24T11:38:05;95148.00;;;13.00
10869;BMP180;62667;48.698;8.762;2023-03-24T11:40:32;95131.00;;;13.40
10869;BMP180;62667;48.698;8.762;2023-03-24T11:43:01;95143.00;;;13.40
10869;BMP180;62667;48.698;8.762;2023-03-24T11:45:36;95145.00;;;13.30
10869;BMP180;62667;48.698;8.762;2023-03-24T11:48:16;95138.00;;;13.20
10869;BMP180;62667;48.698;8.762;2023-03-24T11:50:51;95152.00;;;12.90
10869;BMP180;62667;48.698;8.762;2023-03-24T11:53:21;95138.00;;;13.10
10869;BMP180;62667;48.698;8.762;2023-03-24T11:55:53;95140.00;;;13.10
10869;BMP180;62667;48.698;8.762;2023-03-24T11:58:35;95139.00;;;12.90
10869;BMP180;62667;48.698;8.762;2023-03-24T12:01:08;95156.00;;;13.10
10869;BMP180;62667;48.698;8.762;2023-03-24T12:04:03;95142.00;;;12.90
10869;BMP180;62667;48.698;8.762;2023-03-24T12:06:53;95146.00;;;13.00
10869;BMP180;62667;48.698;8.762;2023-03-24T12:09:26;95146.00;;;13.10
10869;BMP180;62667;48.698;8.762;2023-03-24T12:12:19;95132.00;;;13.00
10869;BMP180;62667;48.698;8.762;2023-03-24T12:15:03;95211.00;;;12.50
10869;BMP180;62667;48.698;8.762;2023-03-24T12:17:40;95153.00;;;12.70
10869;BMP180;62667;48.698;8.762;2023-03-24T12:20:15;95149.00;;;13.20
10869;BMP180;62667;48.698;8.762;2023-03-24T12:22:58;95175.00;;;12.90
10869;BMP180;62667;48.698;8.762;2023-03-24T12:25:48;95133.00;;;13.60
10869;BMP180;62667;48.698;8.762;2023-03-24T12:28:35;95164.00;;;13.90
10869;BMP180;62667;48.698;8.762;2023-03-24T12:31:19;95161.00;;;13.60
10869;BMP180;62667;48.698;8.762;2023-03-24T12:34:02;95143.00;;;13.60
10869;BMP180;62667;48.698;8.762;2023-03-24T12:36:44;95167.00;;;13.50
10869;BMP180;62667;48.698;8.762;2023-03-24T12:39:17;95138.00;;;13.70
10869;BMP180;62667;48.698;8.762;2023-03-24T12:42:01;95135.00;;;14.30
10869;BMP180;62667;48.698;8.762;2023-03-24T12:44:54;95132.00;;;14.60
10869;BMP180;62667;48.698;8.762;2023-03-24T12:47:52;95139.00;;;13.70
10869;BMP180;62667;48.698;8.762;2023-03-24T12:50:33;95160.00;;;13.00
10869;BMP180;62667;48.698;8.762;2023-03-24T12:53:13;95152.00;;;12.80
10869;BMP180;62667;48.698;8.762;2023-03-24T12:55:50;95162.00;;;12.60
10869;BMP180;62667;48.698;8.762;2023-03-24T12:58:21;95154.00;;;12.30
10869;BMP180;62667;48.698;8.762;2023-03-24T13:00:57;95156.00;;;12.40
10869;BMP180;62667;48.698;8.762;2023-03-24T13:03:30;95143.00;;;12.70
10869;BMP180;62667;48.698;8.762;2023-03-24T13:06:07;95148.00;;;12.50
10869;BMP180;62667;48.698;8.762;2023-03-24T13:08:38;95144.00;;;12.60
10869;BMP180;62667;48.698;8.762;2023-03-24T13:11:10;95140.00;;;12.80
10869;BMP180;62667;48.698;8.762;2023-03-24T13:13:42;95138.00;;;12.80
10869;BMP180;62667;48.698;8.762;2023-03-24T13:16:14;95135.00;;;12.70
10869;BMP180;62667;48.698;8.762;2023-03-24T13:18:46;95151.00;;;12.40
10869;BMP180;62667;48.698;8.762;2023-03-24T13:21:17;95148.00;;;12.40
10869;BMP180;62667;48.698;8.762;2023-03-24T13:23:48;95148.00;;;12.50
10869;BMP180;62667;48.698;8.762;2023-03-24T13:26:25;95153.00;;;12.40
10869;BMP180;62667;48.698;8.762;2023-03-24T13:29:09;95129.00;;;12.70
10869;BMP180;62667;48.698;8.762;2023-03-24T13:31:41;95135.00;;;12.70
10869;BMP180;62667;48.698;8.762;2023-03-24T13:34:21;95149.00;;;13.00
10869;BMP180;62667;48.698;8.762;2023-03-24T13:36:51;95150.00;;;12.80
10869;BMP180;62667;48.698;8.762;2023-03-24T13:39:24;95132.00;;;12.90
10869;BMP180;62667;48.698;8.762;2023-03-24T13:41:54;95145.00;;;13.10
10869;BMP180;62667;48.698;8.762;2023-03-24T13:44:25;95153.00;;;13.10
10869;BMP180;62667;48.698;8.762;2023-03-24T13:47:07;95151.00;;;13.10
10869;BMP180;62667;48.698;8.762;2023-03-24T13:49:36;95146.00;;;12.90
10869;BMP180;62667;48.698;8.762;2023-03-24T13:52:06;95145.00;;;12.80
10869;BMP180;62667;48.698;8.762;2023-03-24T13:54:47;95144.00;;;13.00
10869;BMP180;62667;48.698;8.762;2023-03-24T13:57:17;95146.00;;;13.20
10869;BMP180;62667;48.698;8.762;2023-03-24T14:00:00;95153.00;;;12.40
10869;BMP180;62667;48.698;8.762;2023-03-24T14:02:42;95146.00;;;12.40
10869;BMP180;62667;48.698;8.762;2023-03-24T14:05:38;95169.00;;;12.60
10869;BMP180;62667;48.698;8.762;2023-03-24T14:08:12;95150.00;;;12.30
10869;BMP180;62667;48.698;8.762;2023-03-24T14:10:42;95147.00;;;12.50
10869;BMP180;62667;48.698;8.762;2023-03-24T14:16:33;95153.00;;;12.60
10869;BMP180;62667;48.698;8.762;2023-03-24T14:19:22;95154.00;;;12.30
10869;BMP180;62667;48.698;8.762;2023-03-24T14:22:11;95144.00;;;12.20
10869;BMP180;62667;48.698;8.762;2023-03-24T14:24:39;95153.00;;;12.30
10869;BMP180;62667;48.698;8.762;2023-03-24T14:27:30;95152.00;;;11.90
10869;BMP180;62667;48.698;8.762;2023-03-24T14:30:01;95152.00;;;12.00
10869;BMP180;62667;48.698;8.762;2023-03-24T14:32:38;95151.00;;;11.90
10869;BMP180;62667;48.698;8.762;2023-03-24T14:35:23;95151.00;;;12.10
10869;BMP180;62667;48.698;8.762;2023-03-24T14:37:54;95158.00;;;12.00
10869;BMP180;62667;48.698;8.762;2023-03-24T14:40:27;95164.00;;;11.90
10869;BMP180;62667;48.698;8.762;2023-03-24T14:43:15;95165.00;;;11.70